sensor_id;sensor_type;location;lat;lon;timestamp;temperature;humidity
23744;DHT22;12052;53.478;10.182;2022-09-09T00:09:27;13.50;99.90
23744;DHT22;12052;53.478;10.182;2022-09-09T00:12:15;13.60;99.90
23744;DHT22;12052;53.478;10.182;2022-09-09T00:14:54;13.60;99.90
23744;DHT22;12052;53.478;10.182;2022-09-09T00:17:38;13.60;99.90
23744;DHT22;12052;53.478;10.182;2022-09-09T00:20:29;13.60;99.90
23744;DHT22;12052;53.478;10.182;2022-09-09T00:23:49;13.70;99.90
23744;DHT22;12052;53.478;10.182;2022-09-09T00:28:37;13.70;99.90
23744;DHT22;12052;53.478;10.182;2022-09-09T00:31:13;13.80;99.90
23744;DHT22;12052;53.478;10.182;2022-09-09T00:33:39;13.70;99.90
23744;DHT22;12052;53.478;10.182;2022-09-09T00:36:13;13.70;99.90
23744;DHT22;12052;53.478;10.182;2022-09-09T00:38:49;13.70;99.90
23744;DHT22;12052;53.478;10.182;2022-09-09T00:41:47;13.60;99.90
23744;DHT22;12052;53.478;10.182;2022-09-09T00:44:20;13.70;99.90
23744;DHT22;12052;53.478;10.182;2022-09-09T00:57:25;13.70;99.90
23744;DHT22;12052;53.478;10.182;2022-09-09T01:03:17;13.80;99.90
23744;DHT22;12052;53.478;10.182;2022-09-09T01:05:54;13.80;99.90
23744;DHT22;12052;53.478;10.182;2022-09-09T01:10:54;13.80;99.90
23744;DHT22;12052;53.478;10.182;2022-09-09T01:13:25;13.80;99.90
23744;DHT22;12052;53.478;10.182;2022-09-09T01:15:53;13.80;99.90
23744;DHT22;12052;53.478;10.182;2022-09-09T01:18:22;13.90;99.90
23744;DHT22;12052;53.478;10.182;2022-09-09T01:23:38;13.80;99.90
23744;DHT22;12052;53.478;10.182;2022-09-09T01:28:49;13.90;99.90
23744;DHT22;12052;53.478;10.182;2022-09-09T01:31:21;13.70;99.90
23744;DHT22;12052;53.478;10.182;2022-09-09T01:33:48;13.70;99.90
23744;DHT22;12052;53.478;10.182;2022-09-09T01:36:40;13.80;99.90
23744;DHT22;12052;53.478;10.182;2022-09-09T01:39:04;13.80;99.90
23744;DHT22;12052;53.478;10.182;2022-09-09T01:41:29;13.80;99.90
23744;DHT22;12052;53.478;10.182;2022-09-09T01:43:55;13.80;99.90
23744;DHT22;12052;53.478;10.182;2022-09-09T01:46:22;13.80;99.90
23744;DHT22;12052;53.478;10.182;2022-09-09T01:48:50;13.90;99.90
23744;DHT22;12052;53.478;10.182;2022-09-09T01:51:16;13.90;99.90
23744;DHT22;12052;53.478;10.182;2022-09-09T01:53:43;13.90;99.90
23744;DHT22;12052;53.478;10.182;2022-09-09T01:59:02;14.00;99.90
23744;DHT22;12052;53.478;10.182;2022-09-09T02:04:41;14.00;99.90
23744;DHT22;12052;53.478;10.182;2022-09-09T02:07:38;13.80;99.90
23744;DHT22;12052;53.478;10.182;2022-09-09T02:10:17;13.80;99.90
23744;DHT22;12052;53.478;10.182;2022-09-09T02:12:47;13.90;99.90
23744;DHT22;12052;53.478;10.182;2022-09-09T02:15:28;13.80;99.90
23744;DHT22;12052;53.478;10.182;2022-09-09T02:17:57;13.80;99.90
23744;DHT22;12052;53.478;10.182;2022-09-09T02:20:24;13.80;99.90
23744;DHT22;12052;53.478;10.182;2022-09-09T02:22:53;13.70;99.90
23744;DHT22;12052;53.478;10.182;2022-09-09T02:25:22;13.70;99.90
23744;DHT22;12052;53.478;10.182;2022-09-09T02:27:50;13.80;99.90
23744;DHT22;12052;53.478;10.182;2022-09-09T02:30:17;13.70;99.90
23744;DHT22;12052;53.478;10.182;2022-09-09T02:32:44;13.60;99.90
23744;DHT22;12052;53.478;10.182;2022-09-09T02:35:14;13.60;99.90
23744;DHT22;12052;53.478;10.182;2022-09-09T02:37:42;13.70;99.90
23744;DHT22;12052;53.478;10.182;2022-09-09T02:40:10;13.60;99.90
23744;DHT22;12052;53.478;10.182;2022-09-09T02:42:40;13.60;99.90
23744;DHT22;12052;53.478;10.182;2022-09-09T02:45:07;13.60;99.90
23744;DHT22;12052;53.478;10.182;2022-09-09T02:50:26;13.60;99.90
23744;DHT22;12052;53.478;10.182;2022-09-09T02:53:17;13.40;99.90
23744;DHT22;12052;53.478;10.182;2022-09-09T02:56:07;13.50;99.90
23744;DHT22;12052;53.478;10.182;2022-09-09T02:58:35;13.40;99.90
23744;DHT22;12052;53.478;10.182;2022-09-09T03:01:01;13.30;99.90
23744;DHT22;12052;53.478;10.182;2022-09-09T03:03:28;13.40;99.90
23744;DHT22;12052;53.478;10.182;2022-09-09T03:05:54;13.40;99.90
23744;DHT22;12052;53.478;10.182;2022-09-09T03:08:19;13.40;99.90
23744;DHT22;12052;53.478;10.182;2022-09-09T03:10:45;13.30;99.90
23744;DHT22;12052;53.478;10.182;2022-09-09T03:13:11;13.30;99.90
23744;DHT22;12052;53.478;10.182;2022-09-09T03:15:38;13.40;99.90
23744;DHT22;12052;53.478;10.182;2022-09-09T03:18:03;13.40;99.90
23744;DHT22;12052;53.478;10.182;2022-09-09T03:20:29;13.40;99.90
23744;DHT22;12052;53.478;10.182;2022-09-09T03:22:56;13.30;99.90
23744;DHT22;12052;53.478;10.182;2022-09-09T03:25:22;13.40;99.90
23744;DHT22;12052;53.478;10.182;2022-09-09T03:27:52;13.40;99.90
23744;DHT22;12052;53.478;10.182;2022-09-09T03:30:26;13.40;99.90
23744;DHT22;12052;53.478;10.182;2022-09-09T03:32:52;13.40;99.90
23744;DHT22;12052;53.478;10.182;2022-09-09T03:35:18;13.50;99.90
23744;DHT22;12052;53.478;10.182;2022-09-09T03:37:44;13.40;99.90
23744;DHT22;12052;53.478;10.182;2022-09-09T03:40:10;13.30;99.90
23744;DHT22;12052;53.478;10.182;2022-09-09T03:42:36;13.20;99.90
23744;DHT22;12052;53.478;10.182;2022-09-09T03:45:06;13.20;99.90
23744;DHT22;12052;53.478;10.182;2022-09-09T03:47:33;13.20;99.90
23744;DHT22;12052;53.478;10.182;2022-09-09T03:49:58;13.20;99.90
23744;DHT22;12052;53.478;10.182;2022-09-09T03:52:24;13.20;99.90
23744;DHT22;12052;53.478;10.182;2022-09-09T03:54:54;13.10;99.90
23744;DHT22;12052;53.478;10.182;2022-09-09T03:57:22;13.20;99.90
23744;DHT22;12052;53.478;10.182;2022-09-09T03:59:47;13.10;99.90
23744;DHT22;12052;53.478;10.182;2022-09-09T04:02:13;13.00;99.90
23744;DHT22;12052;53.478;10.182;2022-09-09T04:04:38;13.00;99.90
23744;DHT22;12052;53.478;10.182;2022-09-09T04:07:05;13.00;99.90
23744;DHT22;12052;53.478;10.182;2022-09-09T04:09:32;13.00;99.90
23744;DHT22;12052;53.478;10.182;2022-09-09T04:11:57;13.00;99.90
23744;DHT22;12052;53.478;10.182;2022-09-09T04:14:23;13.00;99.90
23744;DHT22;12052;53.478;10.182;2022-09-09T04:16:48;13.00;99.90
23744;DHT22;12052;53.478;10.182;2022-09-09T04:19:14;12.90;99.90
23744;DHT22;12052;53.478;10.182;2022-09-09T04:21:40;12.90;99.90
23744;DHT22;12052;53.478;10.182;2022-09-09T04:24:07;13.00;99.90
23744;DHT22;12052;53.478;10.182;2022-09-09T04:26:34;13.10;99.90
23744;DHT22;12052;53.478;10.182;2022-09-09T04:29:00;13.00;99.90
23744;DHT22;12052;53.478;10.182;2022-09-09T04:31:26;13.00;99.90
23744;DHT22;12052;53.478;10.182;2022-09-09T04:33:51;13.00;99.90
23744;DHT22;12052;53.478;10.182;2022-09-09T04:36:18;12.90;99.90
23744;DHT22;12052;53.478;10.182;2022-09-09T04:38:45;13.00;99.90
23744;DHT22;12052;53.478;10.182;2022-09-09T04:41:11;13.00;99.90
23744;DHT22;12052;53.478;10.182;2022-09-09T04:43:39;13.00;99.90
23744;DHT22;12052;53.478;10.182;2022-09-09T04:46:05;13.00;99.90
23744;DHT22;12052;53.478;10.182;2022-09-09T04:48:31;13.00;99.90
23744;DHT22;12052;53.478;10.182;2022-09-09T04:50:58;13.00;99.90
23744;DHT22;12052;53.478;10.182;2022-09-09T04:53:25;13.00;99.90
23744;DHT22;12052;53.478;10.182;2022-09-09T04:56:12;13.00;99.90
23744;DHT22;12052;53.478;10.182;2022-09-09T04:58:37;13.00;99.90
23744;DHT22;12052;53.478;10.182;2022-09-09T05:01:08;13.00;99.90
23744;DHT22;12052;53.478;10.182;2022-09-09T05:03:34;13.00;99.90
23744;DHT22;12052;53.478;10.182;2022-09-09T05:06:05;13.00;99.90
23744;DHT22;12052;53.478;10.182;2022-09-09T05:08:31;13.00;99.90
23744;DHT22;12052;53.478;10.182;2022-09-09T05:10:56;13.00;99.90
23744;DHT22;12052;53.478;10.182;2022-09-09T05:13:23;13.10;99.90
23744;DHT22;12052;53.478;10.182;2022-09-09T05:15:53;13.10;99.90
23744;DHT22;12052;53.478;10.182;2022-09-09T05:18:19;13.10;99.90
23744;DHT22;12052;53.478;10.182;2022-09-09T05:20:45;13.10;99.90
23744;DHT22;12052;53.478;10.182;2022-09-09T05:23:11;13.00;99.90
23744;DHT22;12052;53.478;10.182;2022-09-09T05:25:39;13.10;99.90
23744;DHT22;12052;53.478;10.182;2022-09-09T05:28:09;13.10;99.90
23744;DHT22;12052;53.478;10.182;2022-09-09T05:30:35;13.10;99.90
23744;DHT22;12052;53.478;10.182;2022-09-09T05:33:00;13.10;99.90
23744;DHT22;12052;53.478;10.182;2022-09-09T05:35:26;13.00;99.90
23744;DHT22;12052;53.478;10.182;2022-09-09T05:37:52;13.20;99.90
23744;DHT22;12052;53.478;10.182;2022-09-09T05:40:17;13.30;99.90
23744;DHT22;12052;53.478;10.182;2022-09-09T05:42:44;13.20;99.90
23744;DHT22;12052;53.478;10.182;2022-09-09T05:45:09;13.20;99.90
23744;DHT22;12052;53.478;10.182;2022-09-09T05:47:36;13.30;99.90
23744;DHT22;12052;53.478;10.182;2022-09-09T05:50:02;13.30;99.90
23744;DHT22;12052;53.478;10.182;2022-09-09T05:52:28;13.20;99.90
23744;DHT22;12052;53.478;10.182;2022-09-09T05:54:54;13.30;99.90
23744;DHT22;12052;53.478;10.182;2022-09-09T05:57:20;13.30;99.90
23744;DHT22;12052;53.478;10.182;2022-09-09T05:59:46;13.30;99.90
23744;DHT22;12052;53.478;10.182;2022-09-09T06:02:12;13.40;99.90
23744;DHT22;12052;53.478;10.182;2022-09-09T06:04:38;13.30;99.90
23744;DHT22;12052;53.478;10.182;2022-09-09T06:07:05;13.40;99.90
23744;DHT22;12052;53.478;10.182;2022-09-09T06:09:31;13.40;99.90
23744;DHT22;12052;53.478;10.182;2022-09-09T06:11:56;13.40;99.90
23744;DHT22;12052;53.478;10.182;2022-09-09T06:14:23;13.50;99.90
23744;DHT22;12052;53.478;10.182;2022-09-09T06:16:50;13.50;99.90
23744;DHT22;12052;53.478;10.182;2022-09-09T06:19:16;13.50;99.90
23744;DHT22;12052;53.478;10.182;2022-09-09T06:21:42;13.60;99.90
23744;DHT22;12052;53.478;10.182;2022-09-09T06:24:09;13.60;99.90
23744;DHT22;12052;53.478;10.182;2022-09-09T06:26:39;13.60;99.90
23744;DHT22;12052;53.478;10.182;2022-09-09T06:29:08;13.50;99.90
23744;DHT22;12052;53.478;10.182;2022-09-09T06:31:35;13.70;99.90
23744;DHT22;12052;53.478;10.182;2022-09-09T06:34:04;13.70;99.90
23744;DHT22;12052;53.478;10.182;2022-09-09T06:36:32;13.60;99.90
23744;DHT22;12052;53.478;10.182;2022-09-09T06:38:59;13.80;99.90
23744;DHT22;12052;53.478;10.182;2022-09-09T06:41:29;13.80;99.90
23744;DHT22;12052;53.478;10.182;2022-09-09T06:43:55;13.80;99.90
23744;DHT22;12052;53.478;10.182;2022-09-09T06:46:23;13.70;99.90
23744;DHT22;12052;53.478;10.182;2022-09-09T06:48:49;13.90;99.90
23744;DHT22;12052;53.478;10.182;2022-09-09T06:51:17;13.90;99.90
23744;DHT22;12052;53.478;10.182;2022-09-09T06:53:45;14.00;99.90
23744;DHT22;12052;53.478;10.182;2022-09-09T06:58:40;14.00;99.90
23744;DHT22;12052;53.478;10.182;2022-09-09T07:01:14;14.00;99.90
23744;DHT22;12052;53.478;10.182;2022-09-09T07:03:41;14.30;99.90
23744;DHT22;12052;53.478;10.182;2022-09-09T07:06:09;14.30;99.90
23744;DHT22;12052;53.478;10.182;2022-09-09T07:08:39;14.50;99.90
23744;DHT22;12052;53.478;10.182;2022-09-09T07:11:07;14.60;99.90
23744;DHT22;12052;53.478;10.182;2022-09-09T07:13:34;14.70;99.90
23744;DHT22;12052;53.478;10.182;2022-09-09T07:16:04;14.70;99.90
23744;DHT22;12052;53.478;10.182;2022-09-09T07:18:30;14.70;99.90
23744;DHT22;12052;53.478;10.182;2022-09-09T07:20:56;14.70;99.90
23744;DHT22;12052;53.478;10.182;2022-09-09T07:23:22;14.80;99.90
23744;DHT22;12052;53.478;10.182;2022-09-09T07:25:48;14.80;99.90
23744;DHT22;12052;53.478;10.182;2022-09-09T07:28:14;15.00;99.90
23744;DHT22;12052;53.478;10.182;2022-09-09T07:30:40;14.90;99.90
23744;DHT22;12052;53.478;10.182;2022-09-09T07:33:06;15.20;99.90
23744;DHT22;12052;53.478;10.182;2022-09-09T07:35:32;15.30;99.90
23744;DHT22;12052;53.478;10.182;2022-09-09T07:38:00;15.40;99.90
23744;DHT22;12052;53.478;10.182;2022-09-09T07:40:27;15.40;99.90
23744;DHT22;12052;53.478;10.182;2022-09-09T07:42:53;15.80;99.90
23744;DHT22;12052;53.478;10.182;2022-09-09T07:45:19;16.10;99.90
23744;DHT22;12052;53.478;10.182;2022-09-09T07:47:44;16.00;99.90
23744;DHT22;12052;53.478;10.182;2022-09-09T07:50:10;16.20;99.90
23744;DHT22;12052;53.478;10.182;2022-09-09T07:52:39;16.40;99.90
23744;DHT22;12052;53.478;10.182;2022-09-09T07:55:08;16.40;99.90
23744;DHT22;12052;53.478;10.182;2022-09-09T07:57:34;16.30;99.90
23744;DHT22;12052;53.478;10.182;2022-09-09T08:00:03;16.40;99.90
23744;DHT22;12052;53.478;10.182;2022-09-09T08:02:29;16.20;99.90
23744;DHT22;12052;53.478;10.182;2022-09-09T08:04:55;16.20;99.90
23744;DHT22;12052;53.478;10.182;2022-09-09T08:07:22;16.20;99.90
23744;DHT22;12052;53.478;10.182;2022-09-09T08:09:48;16.10;99.90
23744;DHT22;12052;53.478;10.182;2022-09-09T08:12:19;16.10;99.90
23744;DHT22;12052;53.478;10.182;2022-09-09T08:14:47;16.00;99.90
23744;DHT22;12052;53.478;10.182;2022-09-09T08:17:18;16.10;99.90
23744;DHT22;12052;53.478;10.182;2022-09-09T08:19:46;16.10;99.90
23744;DHT22;12052;53.478;10.182;2022-09-09T08:22:18;16.20;99.90
23744;DHT22;12052;53.478;10.182;2022-09-09T08:24:44;16.30;99.90
23744;DHT22;12052;53.478;10.182;2022-09-09T08:27:10;16.20;99.90
23744;DHT22;12052;53.478;10.182;2022-09-09T08:29:38;16.20;99.90
23744;DHT22;12052;53.478;10.182;2022-09-09T08:32:05;16.20;99.90
23744;DHT22;12052;53.478;10.182;2022-09-09T08:34:31;16.00;99.90
23744;DHT22;12052;53.478;10.182;2022-09-09T08:36:57;16.20;99.90
23744;DHT22;12052;53.478;10.182;2022-09-09T08:39:28;16.20;99.90
23744;DHT22;12052;53.478;10.182;2022-09-09T08:47:30;16.20;99.90
23744;DHT22;12052;53.478;10.182;2022-09-09T08:53:09;16.20;99.90
23744;DHT22;12052;53.478;10.182;2022-09-09T08:55:55;16.30;99.90
23744;DHT22;12052;53.478;10.182;2022-09-09T08:58:32;16.30;99.90
23744;DHT22;12052;53.478;10.182;2022-09-09T09:12:50;16.70;99.90
23744;DHT22;12052;53.478;10.182;2022-09-09T09:15:21;16.90;99.90
23744;DHT22;12052;53.478;10.182;2022-09-09T09:17:49;16.80;99.90
23744;DHT22;12052;53.478;10.182;2022-09-09T09:20:17;17.00;99.90
23744;DHT22;12052;53.478;10.182;2022-09-09T09:25:20;17.10;99.90
23744;DHT22;12052;53.478;10.182;2022-09-09T09:27:59;17.20;99.90
23744;DHT22;12052;53.478;10.182;2022-09-09T09:35:57;17.20;99.90
23744;DHT22;12052;53.478;10.182;2022-09-09T09:51:22;18.30;99.90
23744;DHT22;12052;53.478;10.182;2022-09-09T10:09:27;17.90;99.90
23744;DHT22;12052;53.478;10.182;2022-09-09T10:20:45;18.70;99.90
23744;DHT22;12052;53.478;10.182;2022-09-09T10:23:46;18.90;99.90
23744;DHT22;12052;53.478;10.182;2022-09-09T10:29:40;19.00;99.90
23744;DHT22;12052;53.478;10.182;2022-09-09T10:40:18;18.50;99.90
23744;DHT22;12052;53.478;10.182;2022-09-09T10:42:46;18.50;99.90
23744;DHT22;12052;53.478;10.182;2022-09-09T10:56:24;18.70;99.90
23744;DHT22;12052;53.478;10.182;2022-09-09T10:58:56;18.40;99.90
23744;DHT22;12052;53.478;10.182;2022-09-09T11:04:33;18.20;99.90
23744;DHT22;12052;53.478;10.182;2022-09-09T11:07:05;18.20;99.90
23744;DHT22;12052;53.478;10.182;2022-09-09T11:09:37;18.10;99.90
23744;DHT22;12052;53.478;10.182;2022-09-09T11:12:05;18.20;99.90
23744;DHT22;12052;53.478;10.182;2022-09-09T11:14:42;18.20;99.90
23744;DHT22;12052;53.478;10.182;2022-09-09T11:17:15;18.30;99.90
23744;DHT22;12052;53.478;10.182;2022-09-09T11:19:44;18.30;99.90
23744;DHT22;12052;53.478;10.182;2022-09-09T11:22:27;18.40;99.90
23744;DHT22;12052;53.478;10.182;2022-09-09T11:25:06;18.50;99.90
23744;DHT22;12052;53.478;10.182;2022-09-09T11:33:29;18.80;99.90
23744;DHT22;12052;53.478;10.182;2022-09-09T11:36:24;18.80;99.90
23744;DHT22;12052;53.478;10.182;2022-09-09T11:39:02;18.70;99.90
23744;DHT22;12052;53.478;10.182;2022-09-09T11:41:36;18.60;99.90
23744;DHT22;12052;53.478;10.182;2022-09-09T11:44:16;18.50;99.90
23744;DHT22;12052;53.478;10.182;2022-09-09T11:46:46;18.30;99.90
23744;DHT22;12052;53.478;10.182;2022-09-09T11:49:27;18.30;99.90
23744;DHT22;12052;53.478;10.182;2022-09-09T11:51:53;18.30;99.90
23744;DHT22;12052;53.478;10.182;2022-09-09T11:54:30;18.40;99.90
23744;DHT22;12052;53.478;10.182;2022-09-09T11:56:56;18.30;99.90
23744;DHT22;12052;53.478;10.182;2022-09-09T12:02:10;18.20;99.90
23744;DHT22;12052;53.478;10.182;2022-09-09T12:04:46;18.10;99.90
23744;DHT22;12052;53.478;10.182;2022-09-09T12:07:27;18.10;99.90
23744;DHT22;12052;53.478;10.182;2022-09-09T12:10:32;18.10;99.90
23744;DHT22;12052;53.478;10.182;2022-09-09T12:13:17;18.10;99.90
23744;DHT22;12052;53.478;10.182;2022-09-09T12:15:54;18.00;99.90
23744;DHT22;12052;53.478;10.182;2022-09-09T12:18:34;17.80;99.90
23744;DHT22;12052;53.478;10.182;2022-09-09T12:24:03;17.90;99.90
23744;DHT22;12052;53.478;10.182;2022-09-09T12:26:47;17.90;99.90
23744;DHT22;12052;53.478;10.182;2022-09-09T12:32:00;18.00;99.90
23744;DHT22;12052;53.478;10.182;2022-09-09T12:34:40;18.00;99.90
23744;DHT22;12052;53.478;10.182;2022-09-09T12:37:26;18.10;99.90
23744;DHT22;12052;53.478;10.182;2022-09-09T12:39:58;18.10;99.90
23744;DHT22;12052;53.478;10.182;2022-09-09T12:42:25;18.10;99.90
23744;DHT22;12052;53.478;10.182;2022-09-09T12:45:01;18.10;99.90
23744;DHT22;12052;53.478;10.182;2022-09-09T12:47:38;18.10;99.90
23744;DHT22;12052;53.478;10.182;2022-09-09T12:52:42;18.50;99.90
23744;DHT22;12052;53.478;10.182;2022-09-09T12:55:20;18.50;99.90
23744;DHT22;12052;53.478;10.182;2022-09-09T12:57:48;18.50;99.90
23744;DHT22;12052;53.478;10.182;2022-09-09T13:00:22;18.60;99.90
23744;DHT22;12052;53.478;10.182;2022-09-09T13:02:55;18.70;99.90
23744;DHT22;12052;53.478;10.182;2022-09-09T13:05:23;18.70;99.90
23744;DHT22;12052;53.478;10.182;2022-09-09T13:07:50;18.80;99.90
23744;DHT22;12052;53.478;10.182;2022-09-09T13:10:23;18.80;99.90
23744;DHT22;12052;53.478;10.182;2022-09-09T13:12:49;18.80;99.90
23744;DHT22;12052;53.478;10.182;2022-09-09T13:15:26;18.80;99.90
23744;DHT22;12052;53.478;10.182;2022-09-09T13:18:00;18.70;99.90
23744;DHT22;12052;53.478;10.182;2022-09-09T13:20:27;18.60;99.90
23744;DHT22;12052;53.478;10.182;2022-09-09T13:22:54;18.50;99.90
23744;DHT22;12052;53.478;10.182;2022-09-09T13:28:05;18.50;99.90
23744;DHT22;12052;53.478;10.182;2022-09-09T13:31:05;18.50;99.90
23744;DHT22;12052;53.478;10.182;2022-09-09T13:33:37;18.40;99.90
23744;DHT22;12052;53.478;10.182;2022-09-09T13:36:05;18.30;99.90
23744;DHT22;12052;53.478;10.182;2022-09-09T13:38:35;18.30;99.90
23744;DHT22;12052;53.478;10.182;2022-09-09T13:41:07;18.20;99.90
23744;DHT22;12052;53.478;10.182;2022-09-09T13:43:44;18.00;99.90
23744;DHT22;12052;53.478;10.182;2022-09-09T13:46:40;17.80;99.90
23744;DHT22;12052;53.478;10.182;2022-09-09T13:51:36;17.60;99.90
23744;DHT22;12052;53.478;10.182;2022-09-09T13:54:04;17.50;99.90
23744;DHT22;12052;53.478;10.182;2022-09-09T13:56:35;17.40;99.90
23744;DHT22;12052;53.478;10.182;2022-09-09T13:59:01;17.30;99.90
23744;DHT22;12052;53.478;10.182;2022-09-09T14:01:27;17.20;99.90
23744;DHT22;12052;53.478;10.182;2022-09-09T14:03:53;17.20;99.90
23744;DHT22;12052;53.478;10.182;2022-09-09T14:06:20;17.10;99.90
23744;DHT22;12052;53.478;10.182;2022-09-09T14:08:47;17.00;99.90
23744;DHT22;12052;53.478;10.182;2022-09-09T14:11:14;16.90;99.90
23744;DHT22;12052;53.478;10.182;2022-09-09T14:13:40;16.80;99.90
23744;DHT22;12052;53.478;10.182;2022-09-09T14:16:05;16.80;99.90
23744;DHT22;12052;53.478;10.182;2022-09-09T14:18:31;16.70;99.90
23744;DHT22;12052;53.478;10.182;2022-09-09T14:20:57;16.70;99.90
23744;DHT22;12052;53.478;10.182;2022-09-09T14:23:24;16.70;99.90
23744;DHT22;12052;53.478;10.182;2022-09-09T14:25:50;16.60;99.90
23744;DHT22;12052;53.478;10.182;2022-09-09T14:28:16;16.60;99.90
23744;DHT22;12052;53.478;10.182;2022-09-09T14:30:42;16.50;99.90
23744;DHT22;12052;53.478;10.182;2022-09-09T14:33:11;16.50;99.90
23744;DHT22;12052;53.478;10.182;2022-09-09T14:35:37;16.50;99.90
23744;DHT22;12052;53.478;10.182;2022-09-09T14:38:04;16.50;99.90
23744;DHT22;12052;53.478;10.182;2022-09-09T14:40:30;16.30;99.90
23744;DHT22;12052;53.478;10.182;2022-09-09T14:42:56;16.40;99.90
23744;DHT22;12052;53.478;10.182;2022-09-09T14:45:23;16.30;99.90
23744;DHT22;12052;53.478;10.182;2022-09-09T14:47:50;16.30;99.90
23744;DHT22;12052;53.478;10.182;2022-09-09T14:50:16;16.20;99.90
23744;DHT22;12052;53.478;10.182;2022-09-09T14:52:42;16.30;99.90
23744;DHT22;12052;53.478;10.182;2022-09-09T14:55:07;16.20;99.90
23744;DHT22;12052;53.478;10.182;2022-09-09T14:57:33;16.20;99.90
23744;DHT22;12052;53.478;10.182;2022-09-09T15:00:01;16.10;99.90
23744;DHT22;12052;53.478;10.182;2022-09-09T15:02:27;16.20;99.90
23744;DHT22;12052;53.478;10.182;2022-09-09T15:04:55;16.20;99.90
23744;DHT22;12052;53.478;10.182;2022-09-09T15:07:23;16.10;99.90
23744;DHT22;12052;53.478;10.182;2022-09-09T15:09:49;16.00;99.90
23744;DHT22;12052;53.478;10.182;2022-09-09T15:12:15;16.00;99.90
23744;DHT22;12052;53.478;10.182;2022-09-09T15:14:41;16.10;99.90
23744;DHT22;12052;53.478;10.182;2022-09-09T15:17:06;16.00;99.90
23744;DHT22;12052;53.478;10.182;2022-09-09T15:19:32;15.90;99.90
23744;DHT22;12052;53.478;10.182;2022-09-09T15:21:58;15.90;99.90
23744;DHT22;12052;53.478;10.182;2022-09-09T15:24:25;15.90;99.90
23744;DHT22;12052;53.478;10.182;2022-09-09T15:26:52;15.90;99.90
23744;DHT22;12052;53.478;10.182;2022-09-09T15:29:19;16.00;99.90
23744;DHT22;12052;53.478;10.182;2022-09-09T15:31:44;16.00;99.90
23744;DHT22;12052;53.478;10.182;2022-09-09T15:34:10;16.00;99.90
23744;DHT22;12052;53.478;10.182;2022-09-09T15:36:41;16.00;99.90
23744;DHT22;12052;53.478;10.182;2022-09-09T15:39:09;16.00;99.90
23744;DHT22;12052;53.478;10.182;2022-09-09T15:41:38;16.00;99.90
23744;DHT22;12052;53.478;10.182;2022-09-09T15:44:04;15.90;99.90
23744;DHT22;12052;53.478;10.182;2022-09-09T15:46:37;16.00;99.90
23744;DHT22;12052;53.478;10.182;2022-09-09T15:51:37;15.90;99.90
23744;DHT22;12052;53.478;10.182;2022-09-09T15:54:03;16.00;99.90
23744;DHT22;12052;53.478;10.182;2022-09-09T15:56:30;15.90;99.90
23744;DHT22;12052;53.478;10.182;2022-09-09T15:58:56;16.00;99.90
23744;DHT22;12052;53.478;10.182;2022-09-09T16:01:24;16.10;99.90
23744;DHT22;12052;53.478;10.182;2022-09-09T16:03:49;16.10;99.90
23744;DHT22;12052;53.478;10.182;2022-09-09T16:06:18;16.20;99.90
23744;DHT22;12052;53.478;10.182;2022-09-09T16:08:47;16.10;99.90
23744;DHT22;12052;53.478;10.182;2022-09-09T16:11:17;16.20;99.90
23744;DHT22;12052;53.478;10.182;2022-09-09T16:13:46;16.10;99.90
23744;DHT22;12052;53.478;10.182;2022-09-09T16:16:13;16.20;99.90
23744;DHT22;12052;53.478;10.182;2022-09-09T16:18:45;16.20;99.90
23744;DHT22;12052;53.478;10.182;2022-09-09T16:21:17;16.30;99.90
23744;DHT22;12052;53.478;10.182;2022-09-09T16:23:43;16.30;99.90
23744;DHT22;12052;53.478;10.182;2022-09-09T16:26:14;16.30;99.90
23744;DHT22;12052;53.478;10.182;2022-09-09T16:28:40;16.40;99.90
23744;DHT22;12052;53.478;10.182;2022-09-09T16:31:10;16.40;99.90
23744;DHT22;12052;53.478;10.182;2022-09-09T16:33:37;16.50;99.90
23744;DHT22;12052;53.478;10.182;2022-09-09T16:36:07;16.40;99.90
23744;DHT22;12052;53.478;10.182;2022-09-09T16:38:33;16.40;99.90
23744;DHT22;12052;53.478;10.182;2022-09-09T16:41:01;16.40;99.90
23744;DHT22;12052;53.478;10.182;2022-09-09T16:43:27;16.40;99.90
23744;DHT22;12052;53.478;10.182;2022-09-09T16:45:52;16.40;99.90
23744;DHT22;12052;53.478;10.182;2022-09-09T16:48:18;16.30;99.90
23744;DHT22;12052;53.478;10.182;2022-09-09T16:50:43;16.40;99.90
23744;DHT22;12052;53.478;10.182;2022-09-09T16:53:10;16.30;99.90
23744;DHT22;12052;53.478;10.182;2022-09-09T16:55:41;16.30;99.90
23744;DHT22;12052;53.478;10.182;2022-09-09T16:58:10;16.20;99.90
23744;DHT22;12052;53.478;10.182;2022-09-09T17:00:36;16.20;99.90
23744;DHT22;12052;53.478;10.182;2022-09-09T17:03:02;16.30;99.90
23744;DHT22;12052;53.478;10.182;2022-09-09T17:05:28;16.20;99.90
23744;DHT22;12052;53.478;10.182;2022-09-09T17:07:58;16.30;99.90
23744;DHT22;12052;53.478;10.182;2022-09-09T17:10:27;16.10;99.90
23744;DHT22;12052;53.478;10.182;2022-09-09T17:12:54;16.10;99.90
23744;DHT22;12052;53.478;10.182;2022-09-09T17:15:20;16.10;99.90
23744;DHT22;12052;53.478;10.182;2022-09-09T17:17:46;16.10;99.90
23744;DHT22;12052;53.478;10.182;2022-09-09T17:20:14;16.10;99.90
23744;DHT22;12052;53.478;10.182;2022-09-09T17:22:40;16.20;99.90
23744;DHT22;12052;53.478;10.182;2022-09-09T17:25:06;16.20;99.90
23744;DHT22;12052;53.478;10.182;2022-09-09T17:27:31;16.20;99.90
23744;DHT22;12052;53.478;10.182;2022-09-09T17:29:57;16.10;99.90
23744;DHT22;12052;53.478;10.182;2022-09-09T17:32:23;16.20;99.90
23744;DHT22;12052;53.478;10.182;2022-09-09T17:34:49;16.20;99.90
23744;DHT22;12052;53.478;10.182;2022-09-09T17:37:15;16.20;99.90
23744;DHT22;12052;53.478;10.182;2022-09-09T17:39:41;16.10;99.90
23744;DHT22;12052;53.478;10.182;2022-09-09T17:42:06;16.20;99.90
23744;DHT22;12052;53.478;10.182;2022-09-09T17:44:33;16.20;99.90
23744;DHT22;12052;53.478;10.182;2022-09-09T17:46:58;16.20;99.90
23744;DHT22;12052;53.478;10.182;2022-09-09T17:49:25;16.00;99.90
23744;DHT22;12052;53.478;10.182;2022-09-09T17:51:51;16.00;99.90
23744;DHT22;12052;53.478;10.182;2022-09-09T17:54:22;16.10;99.90
23744;DHT22;12052;53.478;10.182;2022-09-09T17:56:48;16.00;99.90
23744;DHT22;12052;53.478;10.182;2022-09-09T17:59:16;16.00;99.90
23744;DHT22;12052;53.478;10.182;2022-09-09T18:01:45;16.10;99.90
23744;DHT22;12052;53.478;10.182;2022-09-09T18:04:12;15.90;99.90
23744;DHT22;12052;53.478;10.182;2022-09-09T18:06:49;15.90;99.90
23744;DHT22;12052;53.478;10.182;2022-09-09T18:09:18;15.90;99.90